createdAt,value
2023-05-03T00:02:17.564Z,98844.59
2023-05-03T00:04:51.814Z,98859.81
2023-05-03T00:07:22.210Z,98852.84
2023-05-03T00:09:52.195Z,98855.22
2023-05-03T00:12:22.570Z,98860.84
2023-05-03T00:14:52.768Z,98859.88
2023-05-03T00:17:22.693Z,98859.22
2023-05-03T00:19:55.821Z,98867.28
2023-05-03T00:22:25.853Z,98852.97
2023-05-03T00:24:56.702Z,98854.59
2023-05-03T00:27:26.970Z,98853.78
2023-05-03T00:29:56.880Z,98853.13
2023-05-03T00:32:27.049Z,98843.00
2023-05-03T00:35:00.804Z,98850.28
2023-05-03T00:37:31.096Z,98849.78
2023-05-03T00:40:01.133Z,98849.66
2023-05-03T00:42:31.156Z,98854.41
2023-05-03T00:45:01.230Z,98851.88
2023-05-03T00:47:31.349Z,98849.03
2023-05-03T00:50:04.881Z,98842.06
2023-05-03T00:52:35.644Z,98852.53
2023-05-03T00:55:05.536Z,98842.69
2023-05-03T00:57:35.531Z,98851.72
2023-05-03T01:00:07.474Z,98839.44
2023-05-03T01:02:37.527Z,98845.00
2023-05-03T01:05:11.064Z,98847.94
2023-05-03T01:07:50.932Z,98845.53
2023-05-03T01:10:26.201Z,98844.19
2023-05-03T01:13:02.826Z,98843.50
2023-05-03T01:15:45.134Z,98840.75
2023-05-03T01:18:19.959Z,98843.84
2023-05-03T01:20:54.524Z,98840.91
2023-05-03T01:23:36.093Z,98843.50
2023-05-03T01:26:23.747Z,98834.06
2023-05-03T01:28:53.928Z,98843.72
2023-05-03T01:31:29.358Z,98830.44
2023-05-03T01:34:13.784Z,98831.66
2023-05-03T01:36:47.301Z,98829.69
2023-05-03T01:39:22.510Z,98825.34
2023-05-03T01:41:56.939Z,98819.53
2023-05-03T01:44:27.768Z,98822.13
2023-05-03T01:46:59.927Z,98819.00
2023-05-03T01:49:29.813Z,98817.22
2023-05-03T01:51:59.796Z,98823.81
2023-05-03T01:54:29.669Z,98815.31
2023-05-03T01:57:03.232Z,98818.66
2023-05-03T01:59:33.195Z,98820.13
2023-05-03T02:02:03.089Z,98822.88
2023-05-03T02:04:32.990Z,98819.97
2023-05-03T02:07:02.863Z,98822.91
2023-05-03T02:09:32.883Z,98817.94
2023-05-03T02:12:06.841Z,98812.31
2023-05-03T02:14:37.092Z,98811.91
2023-05-03T02:17:08.581Z,98821.03
2023-05-03T02:19:38.605Z,98816.94
2023-05-03T02:22:09.991Z,98818.19
2023-05-03T02:24:40.203Z,98824.50
2023-05-03T02:27:12.902Z,98818.38
2023-05-03T02:29:43.009Z,98824.44
2023-05-03T02:32:13.541Z,98820.47
2023-05-03T02:34:43.717Z,98820.81
2023-05-03T02:37:13.660Z,98821.75
2023-05-03T02:39:43.649Z,98820.03
2023-05-03T02:42:18.863Z,98813.91
2023-05-03T02:44:49.481Z,98818.72
2023-05-03T02:47:19.385Z,98813.41
2023-05-03T02:49:49.243Z,98814.97
2023-05-03T02:52:19.535Z,98820.91
2023-05-03T02:54:49.719Z,98818.38
2023-05-03T02:57:22.522Z,98818.22
2023-05-03T02:59:52.850Z,98826.50
2023-05-03T03:02:23.919Z,98827.59
2023-05-03T03:04:53.845Z,98828.22
2023-05-03T03:07:23.680Z,98826.31
2023-05-03T03:09:58.258Z,98817.84
2023-05-03T03:12:31.987Z,98812.31
2023-05-03T03:15:03.970Z,98819.25
2023-05-03T03:17:39.166Z,98819.69
2023-05-03T03:20:14.272Z,98819.56
2023-05-03T03:22:48.001Z,98820.53
2023-05-03T03:25:17.914Z,98824.22
2023-05-03T03:27:50.586Z,98817.72
2023-05-03T03:30:20.628Z,98816.88
2023-05-03T03:33:02.308Z,98814.56
2023-05-03T03:35:39.843Z,98816.47
2023-05-03T03:38:10.578Z,98812.03
2023-05-03T03:40:47.203Z,98818.06
2023-05-03T03:43:19.760Z,98823.56
2023-05-03T03:45:50.558Z,98824.75
2023-05-03T03:48:21.004Z,98825.69
2023-05-03T03:50:51.509Z,98826.75
2023-05-03T03:53:23.727Z,98825.38
2023-05-03T03:55:53.588Z,98831.28
2023-05-03T03:58:26.250Z,98833.81
2023-05-03T04:00:57.860Z,98843.56
2023-05-03T04:03:30.313Z,98846.81
2023-05-03T04:06:00.784Z,98845.56
2023-05-03T04:08:31.563Z,98843.59
2023-05-03T04:11:02.107Z,98850.34
2023-05-03T04:13:36.547Z,98845.28
2023-05-03T04:16:06.841Z,98838.88
2023-05-03T04:18:37.923Z,98849.66
2023-05-03T04:21:10.853Z,98852.56
2023-05-03T04:23:40.871Z,98852.78
2023-05-03T04:26:23.901Z,98859.03
2023-05-03T04:29:04.878Z,98852.78
2023-05-03T04:31:35.261Z,98863.00
2023-05-03T04:34:05.247Z,98864.88
2023-05-03T04:36:35.488Z,98871.38
2023-05-03T04:39:06.450Z,98874.78
2023-05-03T04:41:36.689Z,98868.31
2023-05-03T04:44:09.265Z,98873.53
2023-05-03T04:46:40.023Z,98874.97
2023-05-03T04:49:10.380Z,98873.91
2023-05-03T04:51:40.351Z,98880.97
2023-05-03T04:54:10.289Z,98879.69
2023-05-03T04:56:40.423Z,98887.75
2023-05-03T04:59:19.121Z,98889.44
2023-05-03T05:01:49.992Z,98884.00
2023-05-03T05:04:20.587Z,98888.16
2023-05-03T05:06:53.948Z,98880.94
2023-05-03T05:09:31.307Z,98884.78
2023-05-03T05:12:04.262Z,98889.44
2023-05-03T05:14:42.399Z,98888.56
2023-05-03T05:17:13.205Z,98899.41
2023-05-03T05:19:45.096Z,98891.88
2023-05-03T05:22:15.302Z,98900.88
2023-05-03T05:24:51.288Z,98903.19
2023-05-03T05:27:23.676Z,98895.19
2023-05-03T05:29:58.622Z,98901.84
2023-05-03T05:32:28.986Z,98904.53
2023-05-03T05:35:00.097Z,98906.19
2023-05-03T05:37:31.820Z,98909.22
2023-05-03T05:40:05.335Z,98907.88
2023-05-03T05:42:41.349Z,98911.38
2023-05-03T05:45:14.682Z,98915.88
2023-05-03T05:47:46.977Z,98913.53
2023-05-03T05:50:19.071Z,98914.72
2023-05-03T05:52:56.505Z,98911.50
2023-05-03T05:55:29.803Z,98912.78
2023-05-03T05:58:01.819Z,98914.69
2023-05-03T06:00:42.278Z,98911.69
2023-05-03T06:03:12.626Z,98908.13
2023-05-03T06:05:43.157Z,98907.34
2023-05-03T06:08:13.873Z,98901.03
2023-05-03T06:10:44.177Z,98905.28
2023-05-03T06:13:14.576Z,98897.41
2023-05-03T06:15:47.546Z,98903.19
2023-05-03T06:18:17.810Z,98903.22
2023-05-03T06:20:51.517Z,98898.81
2023-05-03T06:23:23.724Z,98903.88
2023-05-03T06:25:55.514Z,98901.78
2023-05-03T06:28:26.640Z,98900.09
2023-05-03T06:31:01.612Z,98896.50
2023-05-03T06:33:34.299Z,98900.84
2023-05-03T06:36:04.538Z,98898.84
2023-05-03T06:38:34.795Z,98902.00
2023-05-03T06:41:05.008Z,98890.00
2023-05-03T06:43:35.473Z,98898.16
2023-05-03T06:46:12.685Z,98895.09
2023-05-03T06:48:43.339Z,98893.59
2023-05-03T06:51:13.715Z,98895.94
2023-05-03T06:53:43.591Z,98894.69
2023-05-03T06:56:13.475Z,98896.06
2023-05-03T06:58:43.281Z,98889.44
2023-05-03T07:01:15.933Z,98893.75
2023-05-03T07:03:46.064Z,98889.28
2023-05-03T07:06:17.059Z,98890.53
2023-05-03T07:08:47.069Z,98881.66
2023-05-03T07:11:16.948Z,98894.69
2023-05-03T07:13:46.914Z,98889.66
2023-05-03T07:16:19.577Z,98885.06
2023-05-03T07:18:49.745Z,98883.16
2023-05-03T07:21:19.850Z,98876.41
2023-05-03T07:23:49.731Z,98872.91
2023-05-03T07:26:19.549Z,98866.78
2023-05-03T07:28:49.421Z,98863.88
2023-05-03T07:31:22.108Z,98852.44
2023-05-03T07:33:52.188Z,98860.75
2023-05-03T07:36:22.248Z,98851.06
2023-05-03T07:38:52.069Z,98851.97
2023-05-03T07:41:21.959Z,98849.78
2023-05-03T07:43:52.093Z,98851.81
2023-05-03T07:46:24.683Z,98842.69
2023-05-03T07:48:54.600Z,98852.44
2023-05-03T07:51:24.466Z,98844.63
2023-05-03T07:53:54.307Z,98848.84
2023-05-03T07:56:24.259Z,98846.53
2023-05-03T07:59:07.459Z,98842.31
2023-05-03T08:01:42.055Z,98838.53
2023-05-03T08:04:12.258Z,98834.38
2023-05-03T08:06:43.240Z,98841.25
2023-05-03T08:09:14.162Z,98843.63
2023-05-03T08:11:44.472Z,98834.66
2023-05-03T08:14:14.514Z,98829.34
2023-05-03T08:16:47.139Z,98836.28
2023-05-03T08:19:17.436Z,98828.59
2023-05-03T08:21:47.307Z,98832.03
2023-05-03T08:24:17.153Z,98836.66
2023-05-03T08:26:48.578Z,98835.13
2023-05-03T08:29:18.545Z,98837.00
2023-05-03T08:31:51.110Z,98836.78
2023-05-03T08:34:21.122Z,98833.47
2023-05-03T08:36:51.175Z,98838.72
2023-05-03T08:39:21.123Z,98840.31
2023-05-03T08:41:51.236Z,98843.03
2023-05-03T08:44:26.058Z,98838.28
2023-05-03T08:46:58.701Z,98837.66
2023-05-03T08:49:29.073Z,98838.22
2023-05-03T08:52:01.467Z,98840.75
2023-05-03T08:54:31.526Z,98841.44
2023-05-03T08:57:01.747Z,98844.84
2023-05-03T08:59:32.276Z,98840.13
2023-05-03T09:02:05.173Z,98842.66
2023-05-03T09:04:36.514Z,98840.41
2023-05-03T09:07:16.014Z,98844.47
2023-05-03T09:09:47.328Z,98841.69
2023-05-03T09:12:37.766Z,98848.34
2023-05-03T09:15:09.152Z,98848.56
2023-05-03T09:17:41.681Z,98845.66
2023-05-03T09:20:13.507Z,98847.34
2023-05-03T09:22:54.367Z,98846.94
2023-05-03T09:25:24.220Z,98849.41
2023-05-03T09:28:04.242Z,98837.84
2023-05-03T09:30:34.359Z,98839.50
2023-05-03T09:33:08.109Z,98835.47
2023-05-03T09:35:38.326Z,98832.06
2023-05-03T09:38:08.433Z,98832.25
2023-05-03T09:40:49.417Z,98829.22
2023-05-03T09:43:19.722Z,98826.25
2023-05-03T09:45:49.685Z,98819.94
2023-05-03T09:48:24.430Z,98831.13
2023-05-03T09:50:54.777Z,98826.59
2023-05-03T09:53:25.490Z,98812.75
2023-05-03T09:55:56.481Z,98821.53
2023-05-03T09:58:29.011Z,98823.31
2023-05-03T10:00:59.643Z,98818.28
2023-05-03T10:03:35.691Z,98820.47
2023-05-03T10:06:10.212Z,98818.56
2023-05-03T10:08:48.179Z,98827.22
2023-05-03T10:11:20.001Z,98822.41
2023-05-03T10:13:49.938Z,98814.69
2023-05-03T10:16:24.705Z,98809.03
2023-05-03T10:19:06.233Z,98811.38
2023-05-03T10:21:50.309Z,98807.47
2023-05-03T10:24:20.462Z,98816.19
2023-05-03T10:26:53.161Z,98811.97
2023-05-03T10:29:51.507Z,98809.81
2023-05-03T10:32:32.220Z,98801.31
2023-05-03T10:35:11.851Z,98797.84
2023-05-03T10:37:45.569Z,98794.84
2023-05-03T10:40:17.690Z,98789.97
2023-05-03T10:42:49.499Z,98795.81
2023-05-03T10:45:25.284Z,98797.25
2023-05-03T10:48:20.940Z,98799.78
2023-05-03T10:50:54.292Z,98792.91
2023-05-03T10:53:41.337Z,98786.91
2023-05-03T10:56:13.066Z,98785.72
2023-05-03T10:58:46.483Z,98787.94
2023-05-03T11:01:18.347Z,98795.03
2023-05-03T11:03:53.513Z,98795.41
2023-05-03T11:06:37.324Z,98781.78
2023-05-03T11:09:08.781Z,98774.06
2023-05-03T11:11:39.973Z,98777.88
2023-05-03T11:14:11.769Z,98767.53
2023-05-03T11:16:48.300Z,98774.41
2023-05-03T11:19:18.852Z,98777.13
2023-05-03T11:21:51.347Z,98765.13
2023-05-03T11:24:21.283Z,98767.72
2023-05-03T11:26:51.650Z,98759.47
2023-05-03T11:29:22.148Z,98769.38
2023-05-03T11:31:53.160Z,98752.38
2023-05-03T11:34:23.232Z,98757.75
2023-05-03T11:36:55.900Z,98753.91
2023-05-03T11:39:26.053Z,98747.34
2023-05-03T11:42:06.529Z,98740.13
2023-05-03T11:44:37.833Z,98746.91
2023-05-03T11:47:09.571Z,98741.53
2023-05-03T11:49:39.649Z,98744.22
2023-05-03T11:52:12.145Z,98746.63
2023-05-03T11:54:42.026Z,98737.31
2023-05-03T11:57:16.794Z,98739.69
2023-05-03T11:59:47.559Z,98739.44
2023-05-03T12:02:19.639Z,98743.53
2023-05-03T12:04:49.696Z,98730.66
2023-05-03T12:07:23.932Z,98728.09
2023-05-03T12:10:10.368Z,98733.53
2023-05-03T12:12:56.932Z,98723.97
2023-05-03T12:15:33.781Z,98716.34
2023-05-03T12:18:05.546Z,98713.72
2023-05-03T12:23:15.101Z,98709.06
2023-05-03T12:25:45.758Z,98711.03
2023-05-03T12:28:20.819Z,98711.00
2023-05-03T12:30:53.392Z,98711.19
2023-05-03T12:33:24.162Z,98710.84
2023-05-03T12:35:54.784Z,98708.75
2023-05-03T12:38:30.590Z,98711.19
2023-05-03T12:41:01.233Z,98707.78
2023-05-03T12:43:31.188Z,98706.44
2023-05-03T12:46:28.824Z,98709.63
2023-05-03T12:48:54.138Z,98701.03
2023-05-03T12:51:26.248Z,98692.94
2023-05-03T12:54:01.750Z,98691.50
2023-05-03T12:56:33.465Z,98696.41
2023-05-03T12:59:31.789Z,98689.69
2023-05-03T13:07:00.839Z,98679.91
2023-05-03T13:10:12.470Z,98675.06
2023-05-03T13:12:24.533Z,98676.66
2023-05-03T13:14:56.087Z,98665.09
2023-05-03T13:17:26.336Z,98662.38
2023-05-03T13:19:56.586Z,98662.31
2023-05-03T13:22:27.228Z,98658.28
2023-05-03T13:25:00.033Z,98663.00
2023-05-03T13:27:29.925Z,98655.34
2023-05-03T13:29:59.795Z,98659.28
2023-05-03T13:32:31.305Z,98658.06
2023-05-03T13:35:01.439Z,98654.03
2023-05-03T13:37:31.450Z,98655.78
2023-05-03T13:40:04.859Z,98646.59
2023-05-03T13:42:36.574Z,98654.75
2023-05-03T13:45:07.542Z,98652.25
2023-05-03T13:50:11.201Z,98642.81
2023-05-03T13:52:42.631Z,98639.91
2023-05-03T13:55:15.216Z,98636.06
2023-05-03T13:57:45.247Z,98633.09
2023-05-03T14:00:16.649Z,98628.41
2023-05-03T14:02:46.562Z,98629.66
2023-05-03T14:05:17.013Z,98636.06
2023-05-03T14:07:46.832Z,98636.41
2023-05-03T14:10:19.623Z,98626.50
2023-05-03T14:12:50.288Z,98635.41
2023-05-03T14:15:20.535Z,98631.03
2023-05-03T14:17:51.058Z,98620.66
2023-05-03T14:20:21.081Z,98630.91
2023-05-03T14:22:51.496Z,98622.72
2023-05-03T14:25:24.068Z,98618.13
2023-05-03T14:27:53.949Z,98622.81
2023-05-03T14:30:24.290Z,98624.56
2023-05-03T14:32:54.248Z,98621.00
2023-05-03T14:35:24.791Z,98611.66
2023-05-03T14:37:54.951Z,98605.63
2023-05-03T14:40:27.474Z,98594.78
2023-05-03T14:42:57.327Z,98601.56
2023-05-03T14:45:27.181Z,98592.81
2023-05-03T14:47:57.497Z,98596.03
2023-05-03T14:50:27.469Z,98593.38
2023-05-03T14:52:57.628Z,98580.41
2023-05-03T14:55:30.074Z,98585.75
2023-05-03T14:58:00.026Z,98576.84
2023-05-03T15:00:30.041Z,98587.25
2023-05-03T15:03:00.047Z,98578.97
2023-05-03T15:05:30.049Z,98587.50
2023-05-03T15:08:00.505Z,98582.69
2023-05-03T15:10:34.595Z,98585.22
2023-05-03T15:13:04.551Z,98584.75
2023-05-03T15:15:34.634Z,98588.06
2023-05-03T15:18:04.564Z,98587.06
2023-05-03T15:20:35.150Z,98576.63
2023-05-03T15:23:07.592Z,98576.53
2023-05-03T15:25:40.190Z,98585.25
2023-05-03T15:28:10.283Z,98575.19
2023-05-03T15:30:40.194Z,98575.13
2023-05-03T15:33:11.098Z,98575.75
2023-05-03T15:35:42.266Z,98582.22
2023-05-03T15:38:12.134Z,98577.38
2023-05-03T15:40:44.581Z,98585.75
2023-05-03T15:43:14.482Z,98579.47
2023-05-03T15:45:44.378Z,98574.13
2023-05-03T15:48:14.299Z,98578.84
2023-05-03T15:50:44.169Z,98583.81
2023-05-03T15:53:14.260Z,98572.25
2023-05-03T15:55:47.432Z,98567.47
2023-05-03T15:58:21.437Z,98571.88
2023-05-03T16:00:52.298Z,98571.22
2023-05-03T16:03:22.149Z,98564.56
2023-05-03T16:05:52.428Z,98559.47
2023-05-03T16:08:22.418Z,98552.84
2023-05-03T16:10:55.011Z,98562.59
2023-05-03T16:13:24.884Z,98569.75
2023-05-03T16:15:56.473Z,98563.34
2023-05-03T16:18:27.037Z,98557.84
2023-05-03T16:20:56.933Z,98554.66
2023-05-03T16:23:27.055Z,98551.69
2023-05-03T16:25:59.486Z,98547.03
2023-05-03T16:28:29.562Z,98548.88
2023-05-03T16:30:59.393Z,98549.84
2023-05-03T16:33:29.312Z,98551.28
2023-05-03T16:35:59.160Z,98551.75
2023-05-03T16:38:30.926Z,98561.88
2023-05-03T16:41:04.661Z,98548.97
2023-05-03T16:43:35.244Z,98548.66
2023-05-03T16:46:05.540Z,98547.19
2023-05-03T16:48:35.958Z,98544.13
2023-05-03T16:51:05.905Z,98541.53
2023-05-03T16:53:35.866Z,98544.69
2023-05-03T16:56:08.988Z,98545.19
2023-05-03T16:58:38.831Z,98551.63
2023-05-03T17:01:08.780Z,98550.41
2023-05-03T17:03:38.745Z,98554.47
2023-05-03T17:06:09.393Z,98545.25
2023-05-03T17:08:39.428Z,98543.44
2023-05-03T17:11:14.420Z,98541.81
2023-05-03T17:13:44.629Z,98542.75
2023-05-03T17:16:15.993Z,98533.09
2023-05-03T17:18:46.345Z,98535.84
2023-05-03T17:21:16.402Z,98530.63
2023-05-03T17:23:46.427Z,98536.94
2023-05-03T17:26:21.476Z,98542.00
2023-05-03T17:28:51.489Z,98544.72
2023-05-03T17:31:21.825Z,98539.41
2023-05-03T17:33:51.736Z,98533.06
2023-05-03T17:36:22.516Z,98539.91
2023-05-03T17:38:53.145Z,98537.06
2023-05-03T17:41:26.086Z,98538.84
2023-05-03T17:43:56.294Z,98536.94
2023-05-03T17:46:26.458Z,98536.59
2023-05-03T17:48:57.949Z,98539.69
2023-05-03T17:51:27.980Z,98535.97
2023-05-03T17:53:57.928Z,98532.44
2023-05-03T17:56:30.503Z,98536.16
2023-05-03T17:59:01.037Z,98535.47
2023-05-03T18:01:31.013Z,98535.47
2023-05-03T18:04:01.056Z,98533.16
2023-05-03T18:06:31.405Z,98536.13
2023-05-03T18:09:01.615Z,98546.00
2023-05-03T18:11:34.487Z,98544.91
2023-05-03T18:14:04.758Z,98541.88
2023-05-03T18:16:36.031Z,98544.38
2023-05-03T18:19:06.663Z,98543.38
2023-05-03T18:21:37.035Z,98546.91
2023-05-03T18:24:07.538Z,98548.06
2023-05-03T18:26:40.846Z,98545.88
2023-05-03T18:29:11.160Z,98546.66
2023-05-03T18:31:41.829Z,98545.16
2023-05-03T18:34:12.286Z,98551.75
2023-05-03T18:36:42.546Z,98557.53
2023-05-03T18:39:13.230Z,98555.13
2023-05-03T18:41:46.118Z,98556.03
2023-05-03T18:44:16.366Z,98556.53
2023-05-03T18:46:46.761Z,98563.50
2023-05-03T18:49:17.059Z,98568.13
2023-05-03T18:51:47.515Z,98566.75
2023-05-03T18:54:18.047Z,98571.69
2023-05-03T18:56:51.012Z,98566.63
2023-05-03T18:59:21.332Z,98569.84
2023-05-03T19:01:51.749Z,98577.34
2023-05-03T19:04:22.031Z,98577.31
2023-05-03T19:06:52.338Z,98573.19
2023-05-03T19:09:22.589Z,98579.31
2023-05-03T19:11:55.706Z,98579.88
2023-05-03T19:14:25.942Z,98580.09
2023-05-03T19:16:56.208Z,98579.47
2023-05-03T19:19:26.568Z,98587.16
2023-05-03T19:21:56.846Z,98584.03
2023-05-03T19:24:27.153Z,98588.78
2023-05-03T19:27:00.334Z,98586.00
2023-05-03T19:29:31.216Z,98588.97
2023-05-03T19:32:01.470Z,98589.16
2023-05-03T19:34:31.729Z,98588.38
2023-05-03T19:37:01.928Z,98585.00
2023-05-03T19:39:35.789Z,98587.75
2023-05-03T19:42:09.117Z,98591.13
2023-05-03T19:44:39.400Z,98581.66
2023-05-03T19:47:09.612Z,98584.06
2023-05-03T19:49:40.558Z,98584.44
2023-05-03T19:52:11.353Z,98577.34
2023-05-03T19:54:41.618Z,98584.44
2023-05-03T19:57:14.480Z,98583.63
2023-05-03T19:59:44.844Z,98588.34
2023-05-03T20:02:15.132Z,98590.31
2023-05-03T20:04:45.717Z,98599.00
2023-05-03T20:07:15.918Z,98598.34
2023-05-03T20:09:46.321Z,98596.63
2023-05-03T20:12:19.149Z,98602.44
2023-05-03T20:14:49.384Z,98597.53
2023-05-03T20:17:19.552Z,98606.19
2023-05-03T20:19:50.072Z,98596.53
2023-05-03T20:22:20.331Z,98606.19
2023-05-03T20:24:52.276Z,98609.06
2023-05-03T20:27:25.314Z,98602.94
2023-05-03T20:29:56.849Z,98603.91
2023-05-03T20:32:27.306Z,98611.41
2023-05-03T20:34:57.619Z,98605.50
2023-05-03T20:37:28.567Z,98608.44
2023-05-03T20:39:58.834Z,98605.88
2023-05-03T20:42:31.648Z,98603.91
2023-05-03T20:45:01.910Z,98606.66
2023-05-03T20:47:32.270Z,98602.94
2023-05-03T20:50:02.744Z,98596.81
2023-05-03T20:52:33.121Z,98599.91
2023-05-03T20:55:03.352Z,98599.47
2023-05-03T20:57:36.263Z,98601.88
2023-05-03T21:00:07.359Z,98604.56
2023-05-03T21:02:37.887Z,98604.19
2023-05-03T21:05:08.332Z,98602.97
2023-05-03T21:07:38.648Z,98610.06
2023-05-03T21:10:09.460Z,98601.84
2023-05-03T21:12:42.339Z,98604.28
2023-05-03T21:15:13.075Z,98603.63
2023-05-03T21:17:43.756Z,98607.97
2023-05-03T21:20:14.487Z,98614.97
2023-05-03T21:22:44.770Z,98611.50
2023-05-03T21:25:15.077Z,98604.56
2023-05-03T21:27:47.914Z,98601.22
2023-05-03T21:30:20.530Z,98595.41
2023-05-03T21:32:50.934Z,98601.91
2023-05-03T21:35:21.446Z,98594.50
2023-05-03T21:37:51.648Z,98596.06
2023-05-03T21:40:23.404Z,98591.19
2023-05-03T21:42:56.414Z,98595.63
2023-05-03T21:45:26.709Z,98586.16
2023-05-03T21:47:57.029Z,98586.13
2023-05-03T21:50:27.354Z,98577.22
2023-05-03T21:52:57.562Z,98577.59
2023-05-03T21:55:28.326Z,98579.28
2023-05-03T21:58:01.278Z,98587.91
2023-05-03T22:00:31.958Z,98581.69
2023-05-03T22:03:02.468Z,98573.28
2023-05-03T22:05:33.211Z,98579.53
2023-05-03T22:08:05.997Z,98568.00
2023-05-03T22:10:36.636Z,98573.66
2023-05-03T22:13:09.553Z,98572.44
2023-05-03T22:15:39.868Z,98572.00
2023-05-03T22:18:10.406Z,98572.19
2023-05-03T22:20:40.643Z,98574.94
2023-05-03T22:23:10.981Z,98569.69
2023-05-03T22:25:41.378Z,98576.00
2023-05-03T22:28:14.182Z,98571.81
2023-05-03T22:30:44.532Z,98569.78
2023-05-03T22:33:14.756Z,98572.84
2023-05-03T22:35:44.968Z,98570.13
2023-05-03T22:38:15.187Z,98571.94
2023-05-03T22:40:45.452Z,98569.31
2023-05-03T22:43:18.293Z,98566.91
2023-05-03T22:45:48.781Z,98569.84
2023-05-03T22:48:19.200Z,98568.44
2023-05-03T22:50:49.404Z,98561.00
2023-05-03T22:53:19.888Z,98559.28
2023-05-03T22:55:57.353Z,98554.41
2023-05-03T22:58:30.299Z,98556.31
2023-05-03T23:01:00.551Z,98560.19
2023-05-03T23:03:30.862Z,98550.34
2023-05-03T23:06:01.776Z,98561.19
2023-05-03T23:08:32.253Z,98552.84
2023-05-03T23:11:02.444Z,98557.59
2023-05-03T23:13:35.276Z,98557.28
2023-05-03T23:16:05.698Z,98553.19
2023-05-03T23:18:35.977Z,98551.88
2023-05-03T23:21:06.560Z,98546.53
2023-05-03T23:23:36.958Z,98548.78
2023-05-03T23:26:07.523Z,98548.63
2023-05-03T23:28:40.857Z,98549.53
2023-05-03T23:31:11.585Z,98541.28
2023-05-03T23:33:42.453Z,98540.59
2023-05-03T23:36:12.739Z,98552.38
2023-05-03T23:38:43.300Z,98546.34
2023-05-03T23:41:13.561Z,98542.63
2023-05-03T23:43:46.419Z,98536.47
2023-05-03T23:46:16.628Z,98541.69
2023-05-03T23:48:47.079Z,98539.19
2023-05-03T23:51:17.420Z,98539.88
2023-05-03T23:53:47.722Z,98537.22
2023-05-03T23:56:17.936Z,98544.66
2023-05-03T23:58:50.743Z,98535.44
